createdAt,value
2018-07-28T00:00:16.721Z,6.63
2018-07-28T00:02:45.294Z,7.60
2018-07-28T00:05:13.926Z,7.77
2018-07-28T00:07:42.600Z,7.30
2018-07-28T00:10:13.113Z,6.80
2018-07-28T00:12:42.957Z,7.00
2018-07-28T00:15:12.880Z,7.13
2018-07-28T00:17:42.742Z,7.10
2018-07-28T00:20:12.905Z,7.80
2018-07-28T00:22:41.649Z,7.17
2018-07-28T00:25:11.617Z,7.37
2018-07-28T00:27:40.773Z,7.83
2018-07-28T00:30:10.675Z,7.17
2018-07-28T00:32:39.173Z,6.60
2018-07-28T00:35:07.877Z,7.60
2018-07-28T00:37:37.149Z,7.33
2018-07-28T00:40:06.297Z,6.90
2018-07-28T00:42:35.455Z,7.73
2018-07-28T00:45:04.480Z,7.70
2018-07-28T00:47:33.425Z,7.67
2018-07-28T00:50:02.593Z,7.57
2018-07-28T00:55:27.918Z,7.80
2018-07-28T00:57:56.861Z,7.37
2018-07-28T01:00:26.314Z,7.17
2018-07-28T01:02:55.365Z,7.60
2018-07-28T01:05:24.257Z,7.30
2018-07-28T01:07:53.234Z,6.97
2018-07-28T01:10:21.825Z,6.93
2018-07-28T01:12:50.305Z,7.87
2018-07-28T01:15:19.195Z,7.77
2018-07-28T01:17:47.974Z,7.67
2018-07-28T01:20:16.781Z,8.17
2018-07-28T01:22:45.565Z,8.30
2018-07-28T01:25:14.306Z,7.73
2018-07-28T01:27:43.036Z,7.80
2018-07-28T01:30:18.997Z,7.70
2018-07-28T01:32:47.787Z,7.63
2018-07-28T01:35:16.376Z,7.53
2018-07-28T01:37:45.114Z,8.00
2018-07-28T01:40:13.948Z,7.47
2018-07-28T01:42:42.784Z,7.67
2018-07-28T01:45:11.466Z,7.97
2018-07-28T01:47:40.347Z,7.17
2018-07-28T01:50:09.768Z,7.87
2018-07-28T01:52:38.761Z,7.67
2018-07-28T01:55:07.666Z,7.00
2018-07-28T01:57:36.601Z,8.10
2018-07-28T02:00:06.113Z,7.77
2018-07-28T02:02:34.890Z,8.47
2018-07-28T02:05:03.816Z,7.57
2018-07-28T02:07:32.607Z,8.13
2018-07-28T02:10:01.453Z,8.00
2018-07-28T02:12:30.225Z,7.67
2018-07-28T02:14:59.020Z,8.07
2018-07-28T02:17:27.861Z,7.53
2018-07-28T02:19:56.733Z,8.40
2018-07-28T02:22:25.621Z,8.07
2018-07-28T02:24:54.416Z,7.70
2018-07-28T02:27:23.309Z,7.60
2018-07-28T02:29:52.093Z,8.00
2018-07-28T02:32:21.006Z,8.70
2018-07-28T02:34:49.981Z,8.60
2018-07-28T02:37:18.700Z,8.27
2018-07-28T02:39:47.450Z,8.63
2018-07-28T02:42:16.230Z,8.23
2018-07-28T02:44:45.469Z,8.33
2018-07-28T02:47:14.285Z,8.57
2018-07-28T02:49:43.115Z,8.10
2018-07-28T02:52:11.885Z,8.40
2018-07-28T02:54:40.727Z,8.30
2018-07-28T02:57:09.706Z,8.50
2018-07-28T02:59:39.052Z,8.67
2018-07-28T03:02:08.014Z,8.63
2018-07-28T03:04:36.807Z,8.43
2018-07-28T03:07:06.563Z,8.77
2018-07-28T03:09:35.605Z,8.97
2018-07-28T03:12:04.469Z,8.33
2018-07-28T03:14:33.341Z,9.63
2018-07-28T03:17:01.973Z,8.33
2018-07-28T03:19:30.783Z,8.20
2018-07-28T03:21:59.578Z,9.30
2018-07-28T03:24:28.521Z,8.43
2018-07-28T03:26:57.385Z,8.67
2018-07-28T03:29:26.127Z,8.57
2018-07-28T03:31:54.937Z,8.83
2018-07-28T03:34:23.745Z,9.03
2018-07-28T03:36:52.614Z,9.07
2018-07-28T03:39:21.425Z,10.47
2018-07-28T03:41:50.306Z,9.03
2018-07-28T03:44:19.128Z,8.73
2018-07-28T03:46:47.718Z,9.80
2018-07-28T03:49:16.492Z,9.40
2018-07-28T03:51:45.345Z,8.57
2018-07-28T03:54:14.149Z,9.10
2018-07-28T03:56:42.926Z,9.50
2018-07-28T03:59:11.790Z,9.60
2018-07-28T04:01:40.589Z,9.33
2018-07-28T04:04:09.518Z,9.70
2018-07-28T04:06:38.309Z,8.73
2018-07-28T04:09:07.332Z,9.13
2018-07-28T04:11:36.081Z,8.73
2018-07-28T04:14:05.192Z,9.43
2018-07-28T04:16:34.042Z,9.00
2018-07-28T04:19:02.857Z,9.83
2018-07-28T04:21:31.641Z,9.00
2018-07-28T04:24:00.453Z,8.53
2018-07-28T04:26:29.397Z,8.90
2018-07-28T04:28:58.305Z,8.47
2018-07-28T04:31:27.174Z,9.27
2018-07-28T04:33:56.133Z,9.17
2018-07-28T04:36:24.973Z,9.07
2018-07-28T04:38:53.957Z,8.13
2018-07-28T04:41:22.771Z,8.83
2018-07-28T04:43:51.839Z,9.60
2018-07-28T04:46:20.632Z,10.10
2018-07-28T04:48:49.561Z,8.60
2018-07-28T04:51:18.368Z,8.43
2018-07-28T04:53:47.314Z,9.20
2018-07-28T04:56:16.225Z,9.73
2018-07-28T04:58:45.066Z,8.30
2018-07-28T05:01:13.962Z,9.77
2018-07-28T05:03:42.777Z,8.90
2018-07-28T05:06:11.641Z,8.27
2018-07-28T05:08:40.585Z,9.40
2018-07-28T05:11:09.383Z,10.07
2018-07-28T05:13:38.036Z,10.23
2018-07-28T05:16:06.768Z,9.23
2018-07-28T05:18:35.745Z,9.87
2018-07-28T05:21:04.539Z,9.33
2018-07-28T05:23:33.186Z,9.50
2018-07-28T05:26:01.893Z,10.17
2018-07-28T05:28:30.697Z,9.33
2018-07-28T05:30:59.552Z,10.60
2018-07-28T05:33:28.354Z,9.83
2018-07-28T05:35:57.134Z,8.97
2018-07-28T05:38:26.154Z,9.33
2018-07-28T05:40:54.936Z,11.20
2018-07-28T05:43:23.841Z,9.87
2018-07-28T05:45:52.602Z,9.53
2018-07-28T05:48:21.414Z,10.60
2018-07-28T05:50:50.301Z,10.10
2018-07-28T05:53:19.065Z,9.93
2018-07-28T05:55:48.037Z,10.50
2018-07-28T05:58:16.957Z,10.60
2018-07-28T06:00:45.746Z,10.60
2018-07-28T06:03:14.537Z,10.33
2018-07-28T06:05:43.319Z,10.17
2018-07-28T06:08:12.246Z,10.03
2018-07-28T06:10:41.065Z,9.50
2018-07-28T06:13:09.489Z,9.90
2018-07-28T06:15:38.181Z,8.87
2018-07-28T06:18:07.006Z,9.80
2018-07-28T06:20:35.729Z,9.70
2018-07-28T06:23:04.522Z,8.60
2018-07-28T06:25:33.294Z,9.93
2018-07-28T06:28:02.146Z,9.33
2018-07-28T06:30:30.951Z,9.20
2018-07-28T06:32:59.714Z,10.23
2018-07-28T06:35:28.532Z,9.60
2018-07-28T06:37:57.539Z,10.50
2018-07-28T06:40:26.405Z,9.93
2018-07-28T06:42:55.282Z,11.03
2018-07-28T06:45:24.206Z,9.17
2018-07-28T06:47:53.029Z,9.43
2018-07-28T06:50:21.781Z,9.43
2018-07-28T06:52:51.168Z,8.90
2018-07-28T06:55:20.354Z,9.30
2018-07-28T06:57:49.165Z,9.47
2018-07-28T07:00:17.970Z,10.70
2018-07-28T07:02:46.733Z,10.13
2018-07-28T07:05:15.534Z,10.70
2018-07-28T07:07:44.301Z,8.07
2018-07-28T07:10:13.102Z,9.43
2018-07-28T07:12:41.861Z,8.40
2018-07-28T07:15:10.638Z,9.07
2018-07-28T07:17:39.479Z,10.07
2018-07-28T07:20:08.365Z,10.83
2018-07-28T07:22:37.205Z,10.20
2018-07-28T07:25:06.081Z,10.73
2018-07-28T07:27:35.069Z,10.50
2018-07-28T07:30:04.657Z,10.17
2018-07-28T07:32:33.531Z,11.07
2018-07-28T07:35:02.129Z,11.70
2018-07-28T07:37:30.814Z,11.77
2018-07-28T07:39:59.669Z,11.37
2018-07-28T07:42:28.465Z,11.47
2018-07-28T07:44:57.253Z,10.93
2018-07-28T07:47:26.066Z,10.50
2018-07-28T07:49:54.615Z,11.20
2018-07-28T07:52:23.120Z,10.40
2018-07-28T07:54:51.845Z,11.07
2018-07-28T07:57:20.600Z,11.60
2018-07-28T07:59:49.161Z,11.20
2018-07-28T08:02:17.873Z,10.90
2018-07-28T08:04:46.789Z,11.40
2018-07-28T08:07:15.533Z,11.83
2018-07-28T08:09:44.397Z,11.80
2018-07-28T08:12:13.224Z,10.17
2018-07-28T08:14:42.015Z,10.93
2018-07-28T08:17:10.896Z,9.60
2018-07-28T08:19:39.451Z,10.27
2018-07-28T08:22:08.142Z,9.87
2018-07-28T08:24:36.976Z,9.10
2018-07-28T08:27:05.898Z,7.77
2018-07-28T08:29:34.774Z,8.00
2018-07-28T08:32:03.557Z,8.10
2018-07-28T08:34:32.305Z,7.40
2018-07-28T08:37:01.067Z,8.00
2018-07-28T08:39:29.932Z,7.60
2018-07-28T08:41:58.733Z,6.90
2018-07-28T08:44:27.469Z,7.60
2018-07-28T08:46:56.250Z,7.03
2018-07-28T08:49:25.100Z,7.80
2018-07-28T08:51:53.750Z,7.60
2018-07-28T08:54:22.373Z,7.33
2018-07-28T08:56:51.042Z,6.87
2018-07-28T08:59:19.845Z,7.43
2018-07-28T09:01:48.706Z,7.03
2018-07-28T09:04:17.486Z,6.40
2018-07-28T09:06:46.041Z,6.47
2018-07-28T09:09:14.771Z,7.60
2018-07-28T09:11:43.521Z,6.53
2018-07-28T09:14:12.306Z,6.30
2018-07-28T09:16:41.085Z,6.40
2018-07-28T09:19:09.893Z,6.70
2018-07-28T09:21:38.737Z,6.60
2018-07-28T09:24:07.281Z,6.70
2018-07-28T09:26:36.037Z,6.47
2018-07-28T09:29:05.086Z,6.00
2018-07-28T09:31:34.002Z,6.37
2018-07-28T09:34:02.761Z,6.37
2018-07-28T09:36:31.336Z,6.20
2018-07-28T09:39:00.202Z,5.83
2018-07-28T09:41:29.048Z,6.00
2018-07-28T09:43:57.645Z,6.07
2018-07-28T09:46:26.558Z,5.50
2018-07-28T09:48:55.679Z,6.27
2018-07-28T09:51:24.614Z,6.17
2018-07-28T09:53:53.506Z,5.30
2018-07-28T09:56:22.410Z,5.87
2018-07-28T09:58:51.160Z,5.47
2018-07-28T10:01:22.081Z,6.77
2018-07-28T10:03:50.901Z,5.77
2018-07-28T10:06:19.577Z,5.47
2018-07-28T10:08:48.356Z,5.47
2018-07-28T10:11:17.182Z,5.87
2018-07-28T10:13:45.910Z,5.87
2018-07-28T10:16:14.701Z,6.03
2018-07-28T10:18:43.429Z,6.00
2018-07-28T10:21:12.269Z,5.70
2018-07-28T10:23:41.053Z,6.47
2018-07-28T10:26:09.913Z,6.03
2018-07-28T10:28:38.661Z,5.80
2018-07-28T10:31:07.238Z,5.20
2018-07-28T10:33:35.753Z,5.23
2018-07-28T10:36:04.747Z,5.67
2018-07-28T10:38:33.626Z,5.33
2018-07-28T10:41:02.389Z,5.83
2018-07-28T10:43:31.189Z,5.60
2018-07-28T10:46:00.305Z,5.17
2018-07-28T10:48:29.380Z,5.17
2018-07-28T10:50:57.993Z,5.67
2018-07-28T10:53:26.818Z,5.83
2018-07-28T10:55:55.595Z,5.50
2018-07-28T10:58:24.586Z,5.70
2018-07-28T11:00:53.345Z,5.73
2018-07-28T11:03:22.148Z,5.17
2018-07-28T11:05:50.967Z,5.40
2018-07-28T11:08:20.078Z,5.37
2018-07-28T11:10:49.038Z,5.77
2018-07-28T11:13:18.042Z,5.93
2018-07-28T11:15:47.225Z,5.90
2018-07-28T11:18:15.932Z,6.63
2018-07-28T11:20:44.949Z,5.23
2018-07-28T11:23:24.052Z,5.00
2018-07-28T11:25:52.794Z,5.53
2018-07-28T11:28:21.624Z,5.53
2018-07-28T11:30:50.619Z,5.73
2018-07-28T11:34:28.505Z,6.20
2018-07-28T11:37:08.841Z,5.37
2018-07-28T11:39:43.071Z,5.43
2018-07-28T11:42:23.281Z,5.77
2018-07-28T11:45:00.135Z,6.07
2018-07-28T11:47:28.917Z,5.83
2018-07-28T11:49:57.678Z,5.47
2018-07-28T11:52:26.494Z,5.70
2018-07-28T11:54:56.364Z,5.57
2018-07-28T11:57:25.150Z,6.10
2018-07-28T11:59:53.941Z,5.20
2018-07-28T12:02:22.681Z,5.57
2018-07-28T12:04:51.473Z,5.13
2018-07-28T12:07:20.281Z,8.40
2018-07-28T12:09:49.125Z,7.73
2018-07-28T12:12:17.882Z,8.70
2018-07-28T12:14:46.789Z,7.37
2018-07-28T12:17:15.376Z,5.60
2018-07-28T12:19:44.343Z,7.27
2018-07-28T12:22:13.125Z,5.93
2018-07-28T12:24:42.097Z,5.77
2018-07-28T12:27:11.233Z,5.97
2018-07-28T12:29:40.284Z,5.63
2018-07-28T12:32:09.312Z,5.20
2018-07-28T12:34:38.234Z,5.10
2018-07-28T12:37:07.624Z,5.10
2018-07-28T12:39:36.466Z,5.67
2018-07-28T12:42:06.509Z,5.70
2018-07-28T12:44:35.321Z,5.63
2018-07-28T12:47:03.977Z,5.40
2018-07-28T12:49:32.773Z,5.07
2018-07-28T12:52:01.767Z,5.23
2018-07-28T12:54:30.573Z,5.60
2018-07-28T12:56:59.371Z,5.13
2018-07-28T12:59:28.550Z,4.90
2018-07-28T13:01:57.477Z,5.17
2018-07-28T13:04:26.449Z,4.30
2018-07-28T13:06:55.233Z,5.07
2018-07-28T13:09:24.145Z,5.03
2018-07-28T13:11:52.717Z,4.57
2018-07-28T13:14:21.553Z,4.90
2018-07-28T13:16:50.370Z,4.80
2018-07-28T13:19:19.268Z,4.80
2018-07-28T13:21:48.050Z,6.33
2018-07-28T13:24:16.874Z,5.27
2018-07-28T13:26:45.481Z,5.20
2018-07-28T13:29:14.370Z,4.77
2018-07-28T13:31:43.197Z,4.40
2018-07-28T13:34:12.033Z,5.23
2018-07-28T13:36:40.609Z,5.00
2018-07-28T13:39:09.407Z,5.30
2018-07-28T13:41:38.359Z,4.47
2018-07-28T13:44:07.218Z,4.73
2018-07-28T13:46:36.016Z,4.80
2018-07-28T13:49:05.342Z,5.77
2018-07-28T13:51:34.181Z,5.03
2018-07-28T13:54:03.400Z,4.63
2018-07-28T13:56:32.401Z,4.30
2018-07-28T13:59:01.366Z,4.83
2018-07-28T14:01:30.318Z,4.83
2018-07-28T14:03:59.100Z,4.20
2018-07-28T14:06:28.025Z,4.07
2018-07-28T14:08:56.905Z,4.47
2018-07-28T14:11:25.758Z,4.83
2018-07-28T14:13:54.673Z,4.70
2018-07-28T14:16:23.569Z,4.37
2018-07-28T14:18:52.377Z,4.33
2018-07-28T14:21:21.188Z,4.30
2018-07-28T14:23:50.326Z,4.50
2018-07-28T14:26:19.341Z,4.03
2018-07-28T14:28:48.127Z,4.00
2018-07-28T14:31:17.001Z,3.93
2018-07-28T14:33:45.791Z,4.20
2018-07-28T14:36:14.972Z,4.00
2018-07-28T14:38:43.729Z,4.30
2018-07-28T14:41:12.622Z,4.30
2018-07-28T14:43:41.493Z,4.07
2018-07-28T14:46:10.403Z,4.00
2018-07-28T14:48:39.621Z,5.77
2018-07-28T14:51:08.561Z,5.23
2018-07-28T14:53:37.493Z,4.90
2018-07-28T14:56:06.798Z,5.10
2018-07-28T14:58:36.413Z,4.10
2018-07-28T15:01:05.291Z,4.60
2018-07-28T15:03:34.371Z,4.33
2018-07-28T15:06:03.327Z,4.07
2018-07-28T15:08:32.141Z,6.10
2018-07-28T15:11:00.972Z,6.07
2018-07-28T15:13:29.685Z,6.47
2018-07-28T15:15:58.533Z,6.13
2018-07-28T15:18:27.305Z,6.63
2018-07-28T15:20:56.030Z,6.60
2018-07-28T15:23:24.873Z,6.87
2018-07-28T15:25:53.716Z,6.63
2018-07-28T15:28:22.470Z,6.77
2018-07-28T15:30:51.025Z,7.07
2018-07-28T15:33:19.741Z,8.47
2018-07-28T15:35:48.292Z,7.50
2018-07-28T15:38:17.017Z,7.57
2018-07-28T15:40:45.805Z,7.50
2018-07-28T15:43:14.593Z,8.23
2018-07-28T15:45:43.450Z,8.30
2018-07-28T15:48:12.214Z,7.77
2018-07-28T15:50:40.956Z,7.37
2018-07-28T15:53:09.721Z,8.20
2018-07-28T15:55:38.691Z,8.07
2018-07-28T15:58:07.405Z,9.37
2018-07-28T16:00:36.297Z,9.37
2018-07-28T16:03:05.129Z,9.17
2018-07-28T16:05:33.886Z,9.53
2018-07-28T16:08:02.649Z,9.73
2018-07-28T16:10:31.402Z,8.33
2018-07-28T16:13:00.150Z,9.47
2018-07-28T16:15:28.805Z,10.00
2018-07-28T16:17:57.565Z,8.90
2018-07-28T16:20:26.401Z,9.53
2018-07-28T16:22:55.298Z,8.43
2018-07-28T16:25:24.060Z,9.60
2018-07-28T16:27:53.092Z,11.07
2018-07-28T16:30:21.903Z,7.50
2018-07-28T16:32:50.485Z,8.27
2018-07-28T16:35:19.154Z,8.77
2018-07-28T16:37:48.400Z,8.07
2018-07-28T16:40:17.243Z,8.23
2018-07-28T16:42:46.042Z,8.83
2018-07-28T16:45:14.890Z,7.60
2018-07-28T16:47:43.950Z,9.00
2018-07-28T16:50:12.961Z,7.93
2018-07-28T16:52:41.853Z,8.03
2018-07-28T16:55:10.625Z,7.57
2018-07-28T16:57:39.493Z,7.53
2018-07-28T17:00:08.737Z,7.60
2018-07-28T17:02:37.706Z,7.67
2018-07-28T17:05:06.804Z,7.10
2018-07-28T17:07:35.593Z,7.27
2018-07-28T17:10:04.818Z,8.07
2018-07-28T17:12:33.605Z,8.53
2018-07-28T17:15:02.485Z,7.50
2018-07-28T17:17:31.310Z,8.53
2018-07-28T17:20:00.106Z,8.33
2018-07-28T17:22:29.087Z,8.63
2018-07-28T17:24:57.994Z,8.20
2018-07-28T17:27:26.877Z,9.17
2018-07-28T17:29:55.645Z,8.47
2018-07-28T17:32:24.629Z,10.60
2018-07-28T17:34:53.360Z,10.10
2018-07-28T17:37:22.410Z,9.30
2018-07-28T17:39:51.218Z,10.27
2018-07-28T17:42:19.780Z,10.90
2018-07-28T17:44:48.524Z,9.93
2018-07-28T17:47:17.364Z,10.53
2018-07-28T17:49:46.844Z,11.53
2018-07-28T17:52:15.611Z,10.90
2018-07-28T17:54:44.493Z,9.90
2018-07-28T17:57:13.142Z,11.00
2018-07-28T17:59:41.837Z,11.07
2018-07-28T18:02:10.380Z,12.00
2018-07-28T18:04:39.217Z,11.50
2018-07-28T18:07:07.953Z,12.00
2018-07-28T18:09:36.929Z,10.20
2018-07-28T18:12:05.933Z,10.37
2018-07-28T18:14:35.127Z,11.23
2018-07-28T18:17:05.851Z,10.53
2018-07-28T18:19:34.799Z,10.37
2018-07-28T18:22:03.534Z,10.30
2018-07-28T18:24:32.251Z,10.17
2018-07-28T18:27:00.955Z,9.70
2018-07-28T18:29:30.033Z,9.60
2018-07-28T18:31:58.799Z,9.20
2018-07-28T18:34:27.541Z,7.87
2018-07-28T18:36:56.334Z,9.67
2018-07-28T18:39:25.294Z,8.67
2018-07-28T18:41:54.098Z,8.70
2018-07-28T18:44:22.912Z,7.77
2018-07-28T18:46:51.701Z,8.27
2018-07-28T18:49:20.465Z,8.77
2018-07-28T18:51:49.305Z,9.00
2018-07-28T18:54:18.172Z,9.07
2018-07-28T18:56:46.945Z,9.20
2018-07-28T18:59:16.110Z,8.03
2018-07-28T19:01:44.846Z,7.20
2018-07-28T19:04:13.617Z,7.90
2018-07-28T19:06:42.420Z,8.23
2018-07-28T19:09:16.662Z,9.13
2018-07-28T19:11:45.247Z,7.53
2018-07-28T19:14:19.212Z,8.23
2018-07-28T19:16:47.881Z,8.57
2018-07-28T19:19:18.100Z,8.43
2018-07-28T19:21:47.141Z,7.93
2018-07-28T19:24:15.995Z,7.90
2018-07-28T19:26:44.933Z,8.63
2018-07-28T19:29:19.101Z,8.23
2018-07-28T19:31:47.970Z,8.07
2018-07-28T19:34:16.929Z,7.50
2018-07-28T19:36:51.069Z,8.53
2018-07-28T19:39:21.348Z,8.20
2018-07-28T19:41:55.653Z,8.10
2018-07-28T19:44:24.554Z,8.70
2018-07-28T19:46:53.506Z,8.87
2018-07-28T19:49:22.336Z,9.40
2018-07-28T19:51:51.122Z,9.40
2018-07-28T19:54:20.057Z,8.70
2018-07-28T19:56:48.841Z,8.60
2018-07-28T19:59:17.617Z,8.90
2018-07-28T20:01:46.360Z,8.67
2018-07-28T20:04:15.290Z,9.30
2018-07-28T20:06:44.064Z,9.43
2018-07-28T20:09:12.884Z,11.03
2018-07-28T20:11:41.476Z,13.30
2018-07-28T20:14:10.230Z,13.17
2018-07-28T20:16:39.106Z,10.97
2018-07-28T20:19:08.170Z,9.30
2018-07-28T20:21:37.026Z,9.57
2018-07-28T20:24:06.189Z,8.80
2018-07-28T20:26:34.993Z,8.10
2018-07-28T20:29:03.708Z,8.27
2018-07-28T20:31:32.296Z,9.13
2018-07-28T20:34:02.958Z,9.70
2018-07-28T20:36:31.909Z,8.60
2018-07-28T20:39:00.597Z,8.80
2018-07-28T20:41:29.470Z,8.50
2018-07-28T20:43:58.285Z,8.30
2018-07-28T20:46:27.058Z,8.37
2018-07-28T20:48:55.849Z,9.67
2018-07-28T20:51:24.618Z,9.50
2018-07-28T20:53:54.642Z,9.73
2018-07-28T20:56:23.613Z,9.73
2018-07-28T20:58:52.366Z,9.63
2018-07-28T21:01:21.295Z,9.87
2018-07-28T21:03:50.249Z,10.53
2018-07-28T21:06:19.093Z,11.70
2018-07-28T21:08:48.077Z,12.00
2018-07-28T21:11:17.029Z,11.87
2018-07-28T21:13:45.584Z,12.27
2018-07-28T21:16:14.074Z,10.20
2018-07-28T21:18:42.573Z,10.97
2018-07-28T21:21:11.261Z,12.27
2018-07-28T21:23:40.054Z,10.10
2018-07-28T21:26:09.073Z,12.07
2018-07-28T21:28:37.887Z,10.40
2018-07-28T21:31:06.797Z,11.10
2018-07-28T21:33:35.775Z,10.73
2018-07-28T21:36:04.958Z,10.50
2018-07-28T21:38:33.955Z,10.63
2018-07-28T21:41:02.779Z,10.17
2018-07-28T21:43:31.581Z,10.67
2018-07-28T21:46:00.450Z,11.30
2018-07-28T21:48:29.338Z,12.23
2018-07-28T21:50:57.924Z,10.63
2018-07-28T21:53:26.456Z,11.87
2018-07-28T21:55:55.316Z,12.17
2018-07-28T21:58:23.879Z,11.50
2018-07-28T22:01:06.305Z,11.83
2018-07-28T22:03:35.569Z,12.20
2018-07-28T22:06:04.361Z,10.67
2018-07-28T22:08:33.277Z,11.07
2018-07-28T22:11:02.034Z,12.00
2018-07-28T22:13:30.925Z,11.73
2018-07-28T22:15:59.733Z,10.97
2018-07-28T22:18:28.621Z,12.63
2018-07-28T22:20:57.554Z,11.70
2018-07-28T22:23:26.645Z,10.87
2018-07-28T22:25:55.401Z,11.53
2018-07-28T22:28:24.229Z,12.20
2018-07-28T22:30:53.018Z,12.00
2018-07-28T22:33:21.924Z,11.70
2018-07-28T22:35:50.949Z,10.93
2018-07-28T22:38:19.945Z,11.20
2018-07-28T22:40:48.741Z,11.13
2018-07-28T22:43:17.542Z,11.60
2018-07-28T22:45:46.314Z,11.00
2018-07-28T22:48:15.121Z,11.87
2018-07-28T22:50:43.909Z,11.37
2018-07-28T22:53:12.697Z,11.53
2018-07-28T22:55:41.581Z,11.33
2018-07-28T22:58:10.405Z,10.50
2018-07-28T23:00:39.331Z,11.97
2018-07-28T23:03:08.126Z,10.83
2018-07-28T23:05:37.046Z,10.10
2018-07-28T23:08:05.945Z,10.67
2018-07-28T23:10:34.754Z,10.50
2018-07-28T23:13:03.833Z,10.10
2018-07-28T23:15:32.488Z,9.43
2018-07-28T23:18:01.210Z,9.13
2018-07-28T23:20:30.015Z,10.87
2018-07-28T23:22:58.957Z,9.87
2018-07-28T23:25:27.941Z,9.47
2018-07-28T23:27:56.771Z,9.23
2018-07-28T23:30:25.620Z,8.47
2018-07-28T23:32:54.581Z,8.83
2018-07-28T23:35:23.437Z,7.93
2018-07-28T23:37:52.210Z,6.93
2018-07-28T23:40:20.985Z,7.57
2018-07-28T23:42:49.883Z,6.73
2018-07-28T23:45:18.713Z,7.37
2018-07-28T23:47:47.336Z,6.20
2018-07-28T23:50:16.041Z,5.03
2018-07-28T23:52:44.913Z,4.87
2018-07-28T23:55:13.649Z,4.50
2018-07-28T23:57:42.435Z,4.63
